ADDS METAR Data INFO
IDs: Format: Raw Decoded Include TAF

Data at: 1553 UTC 12 Dec 2017

KHTL 121543Z AUTO 35013G23KT 2SM UP FEW024 BKN029 OVC042 M12/M17 A2985 RMK AO2 UPB38SNE06 P0001 T11171167
KHTL 121509Z AUTO 35013G20KT 4SM HZ BKN019 BKN027 OVC044 M12/M16 A2985 RMK AO2 SNE06 P0000 T11171161
KHTL 121501Z AUTO 34011G20KT 2SM -SN BKN015 OVC023 M12/M16 A2985 RMK AO2 P0000 T11221156
KHTL 121457Z AUTO 34011G20KT 1 1/4SM -SN OVC015 M12/M16 A2985 RMK AO2 P0000 T11221156
KHTL 121453Z AUTO 33014G20KT 3/4SM -SN VV013 M12/M16 A2984 RMK AO2 SLP129 P0000 60000 T11221156 51017
KHTL 121440Z AUTO 35007KT 1/2SM SN FZFG VV013 M12/M14 A2984 RMK AO2 P0000 T11221144
KHTL 121426Z AUTO 01006G16KT 3/4SM -SN FEW014 BKN023 OVC050 M12/M15 A2984 RMK AO2 P0000 T11221150
KHTL 121424Z AUTO 01006G16KT 1 1/4SM -SN FEW014 BKN025 OVC050 M12/M16 A2984 RMK AO2 P0000 T11171156
KHTL 121403Z AUTO 32013G20KT 2SM -SN BKN027 OVC036 M12/M16 A2983 RMK AO2 P0000 T11171156
KHTL 121353Z AUTO 31014G24KT 1 1/2SM -SN BKN027 OVC034 M12/M16 A2983 RMK AO2 PK WND 31027/1254 SNB43 SLP123 P0000 T11221161
KHTL 121351Z AUTO 32014G24KT 1 3/4SM -SN BKN027 OVC034 M12/M16 A2983 RMK AO2 PK WND 31027/1254 SNB43 P0000
KHTL 121332Z AUTO 33014G24KT 10SM BKN027 BKN035 BKN045 M12/M17 A2982 RMK AO2 PK WND 31027/1254 T11221172
KHTL 121253Z AUTO 32016G28KT 8SM FEW031 FEW049 M12/M18 A2982 RMK AO2 PK WND 34030/1208 SLP120 T11171178
KHTL 121153Z AUTO 34017G25KT 9SM CLR M11/M17 A2979 RMK AO2 PK WND 32030/1057 SLP111 60000 70008 T11111167 11050 21111 51016
KHTL 121053Z AUTO 33015G31KT 7SM FEW045 M11/M16 A2978 RMK AO2 PK WND 32031/1046 UPE0954SNB0954E15 SLP107 P0000 T11061161
KHTL 121005Z AUTO 34012G28KT 3SM -SN SCT026 OVC039 M10/M14 A2976 RMK AO2 PK WND 32028/0955 UPE0954SNB0954 P0000 T11001144
KHTL 120953Z AUTO 32022G34KT 2SM UP FEW023 BKN039 M09/M15 A2976 RMK AO2 PK WND 32034/0947 VIS 1V5 UPB48SNB11E19 SLP098 P0000 T10941150
KHTL 120914Z AUTO 32017G30KT 3SM -SN FEW001 FEW029 FEW038 M09/M15 A2975 RMK AO2 PK WND 32030/0909 SNB11 P0000 T10941150
KHTL 120904Z AUTO 32018G29KT 8SM FEW017 SCT030 SCT035 M09/M14 A2975 RMK AO2 PK WND 31029/0904 T10891144
KHTL 120853Z AUTO 33017G31KT 5SM HZ BKN029 BKN035 M09/M13 A2975 RMK AO2 PK WND 33031/0845 UPB0754E0757SNB10E24 SLP093 P0000 60000 T10891133 53019
KHTL 120827Z AUTO 32015G23KT 9SM BKN030 BKN035 BKN043 M08/M13 A2974 RMK AO2 PK WND 32027/0801 UPB0754E0757SNB10E24 P0000 T10831128
KHTL 120753Z AUTO 32019G28KT 5SM HZ BKN027 OVC041 M08/M12 A2973 RMK AO2 PK WND 32028/0752 SNE52 SLP088 P0000 T10781122
KHTL 120729Z AUTO 33016G23KT 3SM -SN SCT021 BKN027 OVC040 M07/M11 A2971 RMK AO2 P0000 T10721106
KHTL 120703Z AUTO 33012G22KT 5SM -SN FEW020 BKN030 OVC035 M07/M10 A2971 RMK AO2 P0000 T10671100
KHTL 120657Z AUTO 33015G22KT 2SM -SN FEW017 BKN022 OVC030 M07/M09 A2971 RMK AO2 P0000 T10671094
KHTL 120653Z AUTO 33013G23KT 1 1/2SM -SN BR FEW017 BKN022 OVC028 M07/M09 A2970 RMK AO2 SNE00B17 SLP077 P0000 T10671089
KHTL 120651Z AUTO 34012G23KT 1 1/2SM -SN BR BKN019 BKN024 OVC031 M07/M09 A2970 RMK AO2 SNE00B17 P0000
KHTL 120646Z AUTO 33017G23KT 2 1/2SM -SN SCT019 BKN027 OVC034 M06/M09 A2970 RMK AO2 SNE00B17 P0000 T10611089
KHTL 120643Z AUTO 33011G20KT 3SM -SN FEW019 BKN030 OVC038 M06/M09 A2970 RMK AO2 SNE00B17 P0000 T10611089
KHTL 120636Z AUTO 33014G20KT 2 1/2SM -SN BR SCT020 BKN026 OVC060 M06/M08 A2970 RMK AO2 SNE00B17 P0000 T10611083
KHTL 120553Z AUTO 32014G20KT 3SM -SN SCT018 OVC034 M05/M08 A2969 RMK AO2 SNB0455 SLP072 P0000 60002 I6003 T10501078 11033 21067 53005
KHTL 120548Z AUTO 32015G22KT 3SM -SN BR BKN021 OVC031 M05/M07 A2969 RMK AO2 SNB0455 P0000
KHTL 120543Z AUTO 32015G22KT 1 3/4SM -SN BR BKN016 OVC024 M05/M07 A2969 RMK AO2 SNB0455 P0000 T10501067
KHTL 120530Z AUTO 33012G23KT 2 1/2SM -SN BKN018 BKN024 OVC033 M04/M07 A2968 RMK AO2 SNB0455 P0000 T10441072
KHTL 120522Z AUTO 33010G21KT 3SM -SN BR BKN017 BKN023 OVC031 M04/M06 A2968 RMK AO2 SNB0455 P0000 T10441061
KHTL 120508Z AUTO 32015G23KT 2 1/2SM -SN BR FEW018 OVC031 M04/M06 A2968 RMK AO2 SNB0455 P0000 T10391061
KHTL 120453Z AUTO 31013KT 9SM SCT017 BKN026 OVC060 M04/M06 A2967 RMK AO2 SNE42 SLP066 P0001 T10391061 410331089
KHTL 120403Z AUTO 31010KT 3SM -SN BR FEW010 BKN024 OVC032 M04/M06 A2966 RMK AO2 P0000 T10441056
KHTL 120353Z AUTO 29007KT 1 3/4SM -SN BR SCT014 BKN022 OVC036 M04/M06 A2966 RMK AO2 SLP064 P0000 T10441056
KHTL 120337Z AUTO 28005KT 2 1/2SM -SN BR SCT009 BKN020 OVC034 M05/M06 A2967 RMK AO2 P0000 T10501061
KHTL 120326Z AUTO 28007KT 3SM -SN BR BKN007 BKN017 OVC048 M05/M06 A2967 RMK AO2 P0000 T10501061
KHTL 120305Z AUTO 26005KT 2 1/2SM -SN BR OVC006 M05/M06 A2967 RMK AO2 CIG 005V009 P0000 T10501061
KHTL 120253Z AUTO 25005KT 4SM -SN BR OVC005 M06/M06 A2967 RMK AO2 SNB11E21B30 SLP067 P0001 60001 I1001 I3003 T10561061 57004
KHTL 120221Z AUTO 25005KT 3SM BR OVC004 M06/M07 A2968 RMK AO2 SNB11E21 P0000 I1001 T10561067
KHTL 120153Z AUTO 24005KT 2 1/2SM BR OVC004 M06/M07 A2969 RMK AO2 SLP071 I1002 T10561067
KHTL 120143Z AUTO 27004KT 4SM BR BKN005 OVC013 M06/M07 A2969 RMK AO2 I1001 T10611067
KHTL 120121Z AUTO 21007KT 180V300 4SM BR BKN006 OVC013 M06/M07 A2969 RMK AO2 I1001 T10611072
KHTL 120053Z AUTO 18003KT 6SM BR OVC008 M07/M08 A2969 RMK AO2 SNE02 SLP072 P0000 T10671078
KHTL 120009Z AUTO 21003KT 9SM BKN008 OVC016 M07/M08 A2970 RMK AO2 SNE02 P0000 T10671078
KHTL 112353Z AUTO 17005KT 3SM -SN BR OVC006 M07/M08 A2970 RMK AO2 SNB31 SLP077 P0001 60003 I6003 T10671078 11067 21072 56010
KHTL 112350Z AUTO 19004KT 2SM -SN BR OVC006 M07/M08 A2970 RMK AO2 SNB31 P0001
KHTL 112340Z AUTO 20003KT 1 3/4SM -SN BR OVC004 M07/M08 A2970 RMK AO2 SNB31 P0000 T10671078
KHTL 112253Z AUTO 16004KT 4SM BR OVC004 M07/M08 A2970 RMK AO2 SLP078 I1001 T10671078
KHTL 112224Z AUTO 15004KT 5SM BR OVC005 M07/M08 A2971 RMK AO2 I1001 T10671078
KHTL 112203Z AUTO 16004KT 3SM BR OVC006 M07/M08 A2971 RMK AO2 I1000 T10671078
KHTL 112153Z AUTO 15003KT 2 1/2SM BR OVC006 M07/M08 A2971 RMK AO2 SLP082 I1001 T10671078
KHTL 112129Z AUTO 13005KT 2 1/2SM BR OVC006 M07/M08 A2972 RMK AO2 I1001 T10721083
KHTL 112121Z AUTO 14004KT 2 1/2SM BR OVC007 M07/M08 A2972 RMK AO2 I1000 T10671083
KHTL 112114Z AUTO 14006KT 3SM BR OVC007 M07/M08 A2973 RMK AO2 I1000 T10721083
KHTL 112053Z AUTO 12005KT 2 1/2SM BR OVC009 M07/M08 A2973 RMK AO2 CIG 006V010 SLP087 60002 I1001 I3001 T10671083 56017
KHTL 111953Z AUTO VRB04KT 6SM HZ OVC013 M07/M09 A2975 RMK AO2 SNE01B31E53 SLP094 P0001 T10671094
KHTL 111951Z AUTO 16005KT 5SM -SN OVC014 M07/M09 A2975 RMK AO2 SNE01B31 P0001
KHTL 111943Z AUTO 16006KT 2 1/2SM -SN OVC014 M07/M09 A2975 RMK AO2 SNE01B31 P0001 T10671094
KHTL 111931Z AUTO 16006KT 5SM -SN OVC014 M07/M09 A2976 RMK AO2 SNE01B31 P0000 T10671094
KHTL 111853Z AUTO VRB06KT 7SM -SN FEW013 BKN022 OVC055 M07/M09 A2978 RMK AO2 SLP105 P0001 T10671094
KHTL 111847Z AUTO 13005KT 3SM -SN SCT015 BKN022 OVC075 M07/M09 A2978 RMK AO2 P0001
KHTL 111841Z AUTO 15007KT 1 1/4SM -SN BR BKN015 BKN022 OVC075 M07/M09 A2978 RMK AO2 P0001 T10721094
KHTL 111833Z AUTO 13008KT 3/4SM -SN BKN017 BKN022 OVC032 M07/M09 A2978 RMK AO2 P0001 T10671094
KHTL 111811Z AUTO 15007KT 1SM -SN BR BKN028 OVC035 M07/M09 A2980 RMK AO2 P0000 T10721094
KHTL 111753Z AUTO 15006KT 1 1/2SM -SN BKN027 OVC038 M07/M10 A2982 RMK AO2 SLP119 P0001 60003 T10721100 11072 21083 58036
KHTL 111733Z AUTO 15007KT 1 1/4SM -SN BKN023 OVC030 M07/M10 A2984 RMK AO2 P0000 T10721100
KHTL 111721Z AUTO 14008KT 1SM -SN BKN024 OVC037 M07/M10 A2984 RMK AO2 PRESFR P0000 T10721100
KHTL 111713Z AUTO 15007KT 1 1/4SM -SN BKN026 OVC035 M07/M11 A2985 RMK AO2 P0000 T10721106
KHTL 111659Z AUTO 15007KT 1 1/2SM -SN BKN034 OVC048 M07/M11 A2987 RMK AO2 P0000 T10721106
KHTL 111653Z AUTO 15008KT 2SM -SN BKN036 OVC048 M07/M11 A2987 RMK AO2 SLP136 P0001 T10721106
KHTL 111625Z AUTO 16008KT 3SM -SN FEW013 OVC039 M07/M11 A2990 RMK AO2 P0000 T10721106
KHTL 111604Z AUTO 16007KT 2SM -SN BKN032 OVC041 M08/M11 A2991 RMK AO2 P0000 T10781106
KHTL 111555Z AUTO 17008KT 1 3/4SM -SN BKN030 OVC041 M08/M11 A2992 RMK AO2 P0000 T10781106
KHTL 111553Z AUTO 18009KT 1 1/2SM -SN BKN028 BKN034 OVC041 M08/M11 A2992 RMK AO2 SLP152 P0001 T10781106
KHTL 111547Z AUTO 17008KT 1 1/2SM -SN BKN028 BKN032 OVC046 M08/M11 A2993 RMK AO2 P0001
KHTL 111540Z AUTO 18009KT 2 1/2SM -SN BKN028 BKN035 OVC048 M08/M11 A2993 RMK AO2 P0001 T10781111
KHTL 111534Z AUTO 17008KT 3SM -SN BKN031 BKN041 OVC048 M08/M11 A2993 RMK AO2 P0001 T10781106
KHTL 111518Z AUTO 17008KT 2SM -SN BKN023 OVC037 M08/M11 A2993 RMK AO2 P0001 T10781111
KHTL 111500Z AUTO 16007KT 1 1/2SM -SN BKN027 BKN034 OVC044 M08/M11 A2993 RMK AO2 P0000 T10781111
KHTL 111457Z AUTO 17009KT 2SM -SN BKN029 BKN035 OVC044 M08/M11 A2993 RMK AO2 P0000 T10781111
KHTL 111453Z AUTO 18010KT 4SM -SN FEW028 BKN033 OVC050 M07/M12 A2993 RMK AO2 SNB49 SLP156 P0000 60000 T10721117 55007
KHTL 111445Z AUTO 16007KT 10SM SCT028 BKN040 OVC049 M07/M12 A2993 RMK AO2 T10721117
KHTL 111353Z AUTO 15005KT 10SM OVC025 M08/M12 A2993 RMK AO2 SLP154 T10781117
KHTL 111332Z AUTO 16004KT 10SM BKN027 OVC090 M08/M12 A2994 RMK AO2 T10781117
KHTL 111253Z AUTO 17005KT 10SM BKN110 M08/M12 A2994 RMK AO2 SLP158 T10831117
KHTL 111242Z AUTO 16006KT 10SM SCT028 OVC110 M08/M12 A2993 RMK AO2 T10831117
KHTL 111203Z AUTO 17006KT 10SM OVC029 M08/M12 A2994 RMK AO2 T10831117
KHTL 111153Z AUTO 19006KT 10SM OVC030 M08/M12 A2995 RMK AO2 SLP163 70001 T10831117 11083 21089 55012
KHTL 111142Z AUTO 18004KT 10SM OVC030 M09/M12 A2996 RMK AO2 T10891117
KHTL 111053Z AUTO 14003KT 10SM OVC029 M09/M12 A2995 RMK AO2 SLP162 T10891117
KHTL 110953Z AUTO 21003KT 10SM OVC026 M08/M12 A2997 RMK AO2 SLP167 T10831122
KHTL 110853Z AUTO 26004KT 10SM OVC027 M08/M13 A2999 RMK AO2 SLP175 T10831128 50005
KHTL 110753Z AUTO 28004KT 10SM OVC029 M08/M13 A3000 RMK AO2 SLP177 T10831128
KHTL 110653Z AUTO 30003KT 10SM OVC026 M08/M13 A2998 RMK AO2 SLP172 T10831128
KHTL 110553Z AUTO 35003KT 10SM OVC026 M08/M13 A2997 RMK AO2 SLP169 60000 T10831128 11044 21083 50003
KHTL 110453Z AUTO 33007KT 290V350 10SM OVC027 M08/M13 A2998 RMK AO2 SLP172 T10831133 410391083